sensor_id;sensor_type;location;lat;lon;timestamp;P1;durP1;ratioP1;P2;durP2;ratioP2
36799;SDS011;22752;51.960;5.886;2022-12-01T00:01:25;65.90;;;31.03;;
36799;SDS011;22752;51.960;5.886;2022-12-01T00:03:50;76.73;;;34.87;;
36799;SDS011;22752;51.960;5.886;2022-12-01T00:06:17;67.30;;;33.47;;
36799;SDS011;22752;51.960;5.886;2022-12-01T00:08:44;67.13;;;33.17;;
36799;SDS011;22752;51.960;5.886;2022-12-01T00:11:29;75.30;;;34.30;;
36799;SDS011;22752;51.960;5.886;2022-12-01T00:13:56;65.53;;;32.87;;
36799;SDS011;22752;51.960;5.886;2022-12-01T00:16:21;74.53;;;35.60;;
36799;SDS011;22752;51.960;5.886;2022-12-01T00:18:50;77.63;;;35.37;;
36799;SDS011;22752;51.960;5.886;2022-12-01T00:21:17;75.30;;;33.23;;
36799;SDS011;22752;51.960;5.886;2022-12-01T00:23:46;66.97;;;32.40;;
36799;SDS011;22752;51.960;5.886;2022-12-01T00:26:13;71.83;;;32.20;;
36799;SDS011;22752;51.960;5.886;2022-12-01T00:28:39;76.80;;;35.33;;
36799;SDS011;22752;51.960;5.886;2022-12-01T00:31:06;78.00;;;34.83;;
36799;SDS011;22752;51.960;5.886;2022-12-01T00:33:35;70.80;;;34.13;;
36799;SDS011;22752;51.960;5.886;2022-12-01T00:36:01;80.77;;;35.50;;
36799;SDS011;22752;51.960;5.886;2022-12-01T00:38:27;76.67;;;35.50;;
36799;SDS011;22752;51.960;5.886;2022-12-01T00:40:53;70.30;;;32.73;;
36799;SDS011;22752;51.960;5.886;2022-12-01T00:43:19;69.33;;;35.00;;
36799;SDS011;22752;51.960;5.886;2022-12-01T00:45:45;83.20;;;37.97;;
36799;SDS011;22752;51.960;5.886;2022-12-01T00:48:10;69.43;;;33.03;;
36799;SDS011;22752;51.960;5.886;2022-12-01T00:50:36;76.67;;;36.13;;
36799;SDS011;22752;51.960;5.886;2022-12-01T00:53:02;72.47;;;35.10;;
36799;SDS011;22752;51.960;5.886;2022-12-01T00:55:27;74.37;;;35.47;;
36799;SDS011;22752;51.960;5.886;2022-12-01T00:57:53;68.80;;;33.90;;
36799;SDS011;22752;51.960;5.886;2022-12-01T01:00:18;75.40;;;36.20;;
36799;SDS011;22752;51.960;5.886;2022-12-01T01:02:44;67.80;;;33.43;;
36799;SDS011;22752;51.960;5.886;2022-12-01T01:05:10;69.07;;;36.13;;
36799;SDS011;22752;51.960;5.886;2022-12-01T01:07:36;70.53;;;34.20;;
36799;SDS011;22752;51.960;5.886;2022-12-01T01:10:01;69.47;;;34.87;;
36799;SDS011;22752;51.960;5.886;2022-12-01T01:12:27;65.33;;;36.70;;
36799;SDS011;22752;51.960;5.886;2022-12-01T01:14:53;73.87;;;36.47;;
36799;SDS011;22752;51.960;5.886;2022-12-01T01:17:18;67.53;;;35.83;;
36799;SDS011;22752;51.960;5.886;2022-12-01T01:19:44;67.93;;;33.93;;
36799;SDS011;22752;51.960;5.886;2022-12-01T01:22:10;61.50;;;33.17;;
36799;SDS011;22752;51.960;5.886;2022-12-01T01:24:36;66.67;;;32.77;;
36799;SDS011;22752;51.960;5.886;2022-12-01T01:27:02;61.20;;;32.27;;
36799;SDS011;22752;51.960;5.886;2022-12-01T01:29:29;66.57;;;35.20;;
36799;SDS011;22752;51.960;5.886;2022-12-01T01:31:56;61.40;;;32.40;;
36799;SDS011;22752;51.960;5.886;2022-12-01T01:34:21;58.40;;;32.80;;
36799;SDS011;22752;51.960;5.886;2022-12-01T01:36:47;62.20;;;34.00;;
36799;SDS011;22752;51.960;5.886;2022-12-01T01:39:13;59.20;;;32.80;;
36799;SDS011;22752;51.960;5.886;2022-12-01T01:41:39;65.97;;;33.70;;
36799;SDS011;22752;51.960;5.886;2022-12-01T01:44:39;55.53;;;31.97;;
36799;SDS011;22752;51.960;5.886;2022-12-01T01:47:08;60.73;;;33.33;;
36799;SDS011;22752;51.960;5.886;2022-12-01T01:49:35;58.93;;;32.83;;
36799;SDS011;22752;51.960;5.886;2022-12-01T01:52:01;68.60;;;34.67;;
36799;SDS011;22752;51.960;5.886;2022-12-01T01:54:30;66.87;;;35.20;;
36799;SDS011;22752;51.960;5.886;2022-12-01T01:57:00;69.87;;;34.67;;
36799;SDS011;22752;51.960;5.886;2022-12-01T01:59:31;65.93;;;35.70;;
36799;SDS011;22752;51.960;5.886;2022-12-01T02:02:02;67.33;;;35.03;;
36799;SDS011;22752;51.960;5.886;2022-12-01T02:04:33;70.23;;;35.57;;
36799;SDS011;22752;51.960;5.886;2022-12-01T02:07:00;63.83;;;34.23;;
36799;SDS011;22752;51.960;5.886;2022-12-01T02:09:26;68.80;;;36.90;;
36799;SDS011;22752;51.960;5.886;2022-12-01T02:12:02;72.23;;;37.47;;
36799;SDS011;22752;51.960;5.886;2022-12-01T02:17:35;68.13;;;35.73;;
36799;SDS011;22752;51.960;5.886;2022-12-01T02:20:23;68.67;;;36.03;;
36799;SDS011;22752;51.960;5.886;2022-12-01T02:31:17;65.87;;;33.90;;
36799;SDS011;22752;51.960;5.886;2022-12-01T02:41:18;71.32;;;36.15;;
36799;SDS011;22752;51.960;5.886;2022-12-01T02:49:03;72.50;;;36.20;;
36799;SDS011;22752;51.960;5.886;2022-12-01T02:54:01;73.73;;;36.20;;
36799;SDS011;22752;51.960;5.886;2022-12-01T02:56:29;76.53;;;37.13;;
36799;SDS011;22752;51.960;5.886;2022-12-01T02:58:54;79.83;;;39.70;;
36799;SDS011;22752;51.960;5.886;2022-12-01T03:15:37;85.17;;;38.90;;
36799;SDS011;22752;51.960;5.886;2022-12-01T03:20:55;84.70;;;39.57;;
36799;SDS011;22752;51.960;5.886;2022-12-01T03:23:27;85.13;;;39.50;;
36799;SDS011;22752;51.960;5.886;2022-12-01T03:25:56;88.80;;;39.17;;
36799;SDS011;22752;51.960;5.886;2022-12-01T03:28:26;92.30;;;39.63;;
36799;SDS011;22752;51.960;5.886;2022-12-01T03:30:58;87.85;;;40.38;;
36799;SDS011;22752;51.960;5.886;2022-12-01T03:33:29;79.33;;;37.50;;
36799;SDS011;22752;51.960;5.886;2022-12-01T03:36:02;90.87;;;41.27;;
36799;SDS011;22752;51.960;5.886;2022-12-01T03:38:51;89.83;;;39.53;;
36799;SDS011;22752;51.960;5.886;2022-12-01T03:41:24;82.87;;;39.37;;
36799;SDS011;22752;51.960;5.886;2022-12-01T03:43:56;88.80;;;40.40;;
36799;SDS011;22752;51.960;5.886;2022-12-01T03:46:40;85.47;;;38.20;;
36799;SDS011;22752;51.960;5.886;2022-12-01T03:49:18;90.73;;;40.83;;
36799;SDS011;22752;51.960;5.886;2022-12-01T03:57:31;78.82;;;38.63;;
36799;SDS011;22752;51.960;5.886;2022-12-01T04:00:16;74.27;;;37.60;;
36799;SDS011;22752;51.960;5.886;2022-12-01T04:02:43;78.27;;;38.63;;
36799;SDS011;22752;51.960;5.886;2022-12-01T04:05:09;77.60;;;38.50;;
36799;SDS011;22752;51.960;5.886;2022-12-01T04:07:35;80.87;;;38.63;;
36799;SDS011;22752;51.960;5.886;2022-12-01T04:10:02;74.17;;;38.17;;
36799;SDS011;22752;51.960;5.886;2022-12-01T04:12:29;78.47;;;39.83;;
36799;SDS011;22752;51.960;5.886;2022-12-01T04:14:55;77.87;;;37.27;;
36799;SDS011;22752;51.960;5.886;2022-12-01T04:17:22;72.77;;;37.97;;
36799;SDS011;22752;51.960;5.886;2022-12-01T04:19:48;78.20;;;37.90;;
36799;SDS011;22752;51.960;5.886;2022-12-01T04:22:13;73.90;;;37.67;;
36799;SDS011;22752;51.960;5.886;2022-12-01T04:24:39;73.23;;;38.47;;
36799;SDS011;22752;51.960;5.886;2022-12-01T04:27:05;76.93;;;38.00;;
36799;SDS011;22752;51.960;5.886;2022-12-01T04:29:30;74.70;;;38.07;;
36799;SDS011;22752;51.960;5.886;2022-12-01T04:31:56;70.40;;;36.37;;
36799;SDS011;22752;51.960;5.886;2022-12-01T04:34:22;77.03;;;38.90;;
36799;SDS011;22752;51.960;5.886;2022-12-01T04:36:48;74.60;;;35.80;;
36799;SDS011;22752;51.960;5.886;2022-12-01T04:39:13;68.23;;;36.97;;
36799;SDS011;22752;51.960;5.886;2022-12-01T04:41:39;73.70;;;36.73;;
36799;SDS011;22752;51.960;5.886;2022-12-01T04:44:05;70.63;;;36.03;;
36799;SDS011;22752;51.960;5.886;2022-12-01T04:46:30;71.57;;;37.20;;
36799;SDS011;22752;51.960;5.886;2022-12-01T04:48:56;70.50;;;37.07;;
36799;SDS011;22752;51.960;5.886;2022-12-01T04:51:22;66.50;;;35.37;;
36799;SDS011;22752;51.960;5.886;2022-12-01T04:53:48;70.13;;;36.10;;
36799;SDS011;22752;51.960;5.886;2022-12-01T04:56:14;71.10;;;37.37;;
36799;SDS011;22752;51.960;5.886;2022-12-01T04:58:40;69.57;;;35.90;;
36799;SDS011;22752;51.960;5.886;2022-12-01T05:01:07;68.57;;;35.63;;
36799;SDS011;22752;51.960;5.886;2022-12-01T05:03:35;66.83;;;35.47;;
36799;SDS011;22752;51.960;5.886;2022-12-01T05:06:06;66.60;;;36.10;;
36799;SDS011;22752;51.960;5.886;2022-12-01T05:08:34;67.97;;;35.97;;
36799;SDS011;22752;51.960;5.886;2022-12-01T05:10:59;66.87;;;34.47;;
36799;SDS011;22752;51.960;5.886;2022-12-01T05:13:26;67.43;;;36.70;;
36799;SDS011;22752;51.960;5.886;2022-12-01T05:15:52;65.77;;;35.27;;
36799;SDS011;22752;51.960;5.886;2022-12-01T05:18:18;71.43;;;36.73;;
36799;SDS011;22752;51.960;5.886;2022-12-01T05:20:44;66.37;;;35.30;;
36799;SDS011;22752;51.960;5.886;2022-12-01T05:23:25;71.03;;;35.43;;
36799;SDS011;22752;51.960;5.886;2022-12-01T05:25:53;64.70;;;34.87;;
36799;SDS011;22752;51.960;5.886;2022-12-01T05:28:19;65.53;;;34.77;;
36799;SDS011;22752;51.960;5.886;2022-12-01T05:30:46;64.20;;;34.97;;
36799;SDS011;22752;51.960;5.886;2022-12-01T05:33:12;62.57;;;33.20;;
36799;SDS011;22752;51.960;5.886;2022-12-01T05:35:38;60.33;;;32.90;;
36799;SDS011;22752;51.960;5.886;2022-12-01T05:38:04;61.47;;;34.60;;
36799;SDS011;22752;51.960;5.886;2022-12-01T05:40:30;64.37;;;34.40;;
36799;SDS011;22752;51.960;5.886;2022-12-01T05:42:56;65.30;;;34.87;;
36799;SDS011;22752;51.960;5.886;2022-12-01T05:45:22;63.47;;;34.13;;
36799;SDS011;22752;51.960;5.886;2022-12-01T05:47:48;65.60;;;35.03;;
36799;SDS011;22752;51.960;5.886;2022-12-01T05:50:13;61.87;;;34.60;;
36799;SDS011;22752;51.960;5.886;2022-12-01T05:52:40;66.67;;;34.53;;
36799;SDS011;22752;51.960;5.886;2022-12-01T05:55:06;68.57;;;34.87;;
36799;SDS011;22752;51.960;5.886;2022-12-01T05:57:32;63.07;;;34.47;;
36799;SDS011;22752;51.960;5.886;2022-12-01T05:59:58;65.10;;;36.47;;
36799;SDS011;22752;51.960;5.886;2022-12-01T06:02:24;60.07;;;33.53;;
36799;SDS011;22752;51.960;5.886;2022-12-01T06:04:51;61.43;;;34.20;;
36799;SDS011;22752;51.960;5.886;2022-12-01T06:07:17;62.30;;;34.37;;
36799;SDS011;22752;51.960;5.886;2022-12-01T06:09:43;59.63;;;32.90;;
36799;SDS011;22752;51.960;5.886;2022-12-01T06:12:10;59.00;;;33.33;;
36799;SDS011;22752;51.960;5.886;2022-12-01T06:14:36;68.83;;;36.43;;
36799;SDS011;22752;51.960;5.886;2022-12-01T06:17:02;60.40;;;33.43;;
36799;SDS011;22752;51.960;5.886;2022-12-01T06:19:27;61.87;;;36.07;;
36799;SDS011;22752;51.960;5.886;2022-12-01T06:21:53;63.53;;;36.13;;
36799;SDS011;22752;51.960;5.886;2022-12-01T06:24:18;67.93;;;36.30;;
36799;SDS011;22752;51.960;5.886;2022-12-01T06:26:44;64.13;;;36.50;;
36799;SDS011;22752;51.960;5.886;2022-12-01T06:29:10;69.47;;;35.63;;
36799;SDS011;22752;51.960;5.886;2022-12-01T06:31:35;72.33;;;36.13;;
36799;SDS011;22752;51.960;5.886;2022-12-01T06:34:01;62.93;;;35.83;;
36799;SDS011;22752;51.960;5.886;2022-12-01T06:36:26;65.87;;;35.67;;
36799;SDS011;22752;51.960;5.886;2022-12-01T06:38:52;66.17;;;37.23;;
36799;SDS011;22752;51.960;5.886;2022-12-01T06:41:17;66.57;;;36.77;;
36799;SDS011;22752;51.960;5.886;2022-12-01T06:43:43;69.73;;;38.20;;
36799;SDS011;22752;51.960;5.886;2022-12-01T06:46:09;69.07;;;36.83;;
36799;SDS011;22752;51.960;5.886;2022-12-01T06:48:34;71.70;;;38.13;;
36799;SDS011;22752;51.960;5.886;2022-12-01T06:51:00;68.77;;;37.57;;
36799;SDS011;22752;51.960;5.886;2022-12-01T06:53:27;71.03;;;37.13;;
36799;SDS011;22752;51.960;5.886;2022-12-01T06:55:53;82.63;;;41.50;;
36799;SDS011;22752;51.960;5.886;2022-12-01T06:58:25;79.25;;;41.53;;
36799;SDS011;22752;51.960;5.886;2022-12-01T07:00:51;80.50;;;39.47;;
36799;SDS011;22752;51.960;5.886;2022-12-01T07:03:17;80.50;;;40.47;;
36799;SDS011;22752;51.960;5.886;2022-12-01T07:05:42;82.27;;;40.90;;
36799;SDS011;22752;51.960;5.886;2022-12-01T07:08:08;74.47;;;39.43;;
36799;SDS011;22752;51.960;5.886;2022-12-01T07:10:34;70.97;;;38.83;;
36799;SDS011;22752;51.960;5.886;2022-12-01T07:12:59;80.17;;;40.50;;
36799;SDS011;22752;51.960;5.886;2022-12-01T07:15:25;76.73;;;39.33;;
36799;SDS011;22752;51.960;5.886;2022-12-01T07:17:52;80.83;;;40.27;;
36799;SDS011;22752;51.960;5.886;2022-12-01T07:20:18;91.30;;;43.70;;
36799;SDS011;22752;51.960;5.886;2022-12-01T07:22:44;78.63;;;39.47;;
36799;SDS011;22752;51.960;5.886;2022-12-01T07:25:09;84.77;;;41.27;;
36799;SDS011;22752;51.960;5.886;2022-12-01T07:27:35;85.27;;;42.63;;
36799;SDS011;22752;51.960;5.886;2022-12-01T07:30:01;82.53;;;38.93;;
36799;SDS011;22752;51.960;5.886;2022-12-01T07:32:26;81.13;;;38.87;;
36799;SDS011;22752;51.960;5.886;2022-12-01T07:34:52;86.10;;;41.43;;
36799;SDS011;22752;51.960;5.886;2022-12-01T07:37:18;86.63;;;41.07;;
36799;SDS011;22752;51.960;5.886;2022-12-01T07:39:43;88.13;;;41.87;;
36799;SDS011;22752;51.960;5.886;2022-12-01T07:42:09;88.93;;;43.17;;
36799;SDS011;22752;51.960;5.886;2022-12-01T07:44:34;99.17;;;44.23;;
36799;SDS011;22752;51.960;5.886;2022-12-01T07:47:00;100.07;;;43.97;;
36799;SDS011;22752;51.960;5.886;2022-12-01T07:49:25;89.47;;;42.37;;
36799;SDS011;22752;51.960;5.886;2022-12-01T07:51:51;100.77;;;44.77;;
36799;SDS011;22752;51.960;5.886;2022-12-01T07:54:17;106.40;;;45.23;;
36799;SDS011;22752;51.960;5.886;2022-12-01T07:56:45;97.90;;;43.93;;
36799;SDS011;22752;51.960;5.886;2022-12-01T07:59:10;92.57;;;42.90;;
36799;SDS011;22752;51.960;5.886;2022-12-01T08:01:36;94.13;;;42.23;;
36799;SDS011;22752;51.960;5.886;2022-12-01T08:04:02;89.20;;;40.23;;
36799;SDS011;22752;51.960;5.886;2022-12-01T08:06:28;91.77;;;43.33;;
36799;SDS011;22752;51.960;5.886;2022-12-01T08:08:55;84.70;;;40.67;;
36799;SDS011;22752;51.960;5.886;2022-12-01T08:11:23;93.97;;;42.17;;
36799;SDS011;22752;51.960;5.886;2022-12-01T08:13:51;92.60;;;42.97;;
36799;SDS011;22752;51.960;5.886;2022-12-01T08:16:18;96.07;;;42.17;;
36799;SDS011;22752;51.960;5.886;2022-12-01T08:18:46;89.30;;;41.60;;
36799;SDS011;22752;51.960;5.886;2022-12-01T08:21:17;92.20;;;43.47;;
36799;SDS011;22752;51.960;5.886;2022-12-01T08:23:44;97.10;;;44.88;;
36799;SDS011;22752;51.960;5.886;2022-12-01T08:26:15;96.20;;;43.23;;
36799;SDS011;22752;51.960;5.886;2022-12-01T08:28:42;90.47;;;41.03;;
36799;SDS011;22752;51.960;5.886;2022-12-01T08:31:16;99.33;;;44.07;;
36799;SDS011;22752;51.960;5.886;2022-12-01T08:33:44;98.13;;;43.97;;
36799;SDS011;22752;51.960;5.886;2022-12-01T08:36:11;93.53;;;42.23;;
36799;SDS011;22752;51.960;5.886;2022-12-01T08:38:37;87.57;;;41.07;;
36799;SDS011;22752;51.960;5.886;2022-12-01T08:41:04;86.40;;;40.67;;
36799;SDS011;22752;51.960;5.886;2022-12-01T08:43:31;96.73;;;44.63;;
36799;SDS011;22752;51.960;5.886;2022-12-01T08:45:58;86.57;;;40.97;;
36799;SDS011;22752;51.960;5.886;2022-12-01T08:48:24;94.47;;;44.03;;
36799;SDS011;22752;51.960;5.886;2022-12-01T08:50:59;89.57;;;43.67;;
36799;SDS011;22752;51.960;5.886;2022-12-01T08:53:25;86.50;;;41.75;;
36799;SDS011;22752;51.960;5.886;2022-12-01T08:55:51;92.93;;;40.67;;
36799;SDS011;22752;51.960;5.886;2022-12-01T08:58:17;91.43;;;42.57;;
36799;SDS011;22752;51.960;5.886;2022-12-01T09:00:42;98.53;;;45.37;;
36799;SDS011;22752;51.960;5.886;2022-12-01T09:03:08;92.83;;;42.47;;
36799;SDS011;22752;51.960;5.886;2022-12-01T09:05:33;98.40;;;45.50;;
36799;SDS011;22752;51.960;5.886;2022-12-01T09:07:59;91.53;;;42.17;;
36799;SDS011;22752;51.960;5.886;2022-12-01T09:10:49;90.67;;;44.20;;
36799;SDS011;22752;51.960;5.886;2022-12-01T09:15:41;96.23;;;42.93;;
36799;SDS011;22752;51.960;5.886;2022-12-01T09:18:07;96.20;;;44.17;;
36799;SDS011;22752;51.960;5.886;2022-12-01T09:20:33;88.23;;;41.67;;
36799;SDS011;22752;51.960;5.886;2022-12-01T09:22:58;92.70;;;43.47;;
36799;SDS011;22752;51.960;5.886;2022-12-01T09:25:24;99.97;;;45.33;;
36799;SDS011;22752;51.960;5.886;2022-12-01T09:27:49;96.43;;;43.73;;
36799;SDS011;22752;51.960;5.886;2022-12-01T09:30:15;91.57;;;41.63;;
36799;SDS011;22752;51.960;5.886;2022-12-01T09:32:41;92.60;;;43.43;;
36799;SDS011;22752;51.960;5.886;2022-12-01T09:35:06;79.07;;;38.50;;
36799;SDS011;22752;51.960;5.886;2022-12-01T09:37:32;86.30;;;40.73;;
36799;SDS011;22752;51.960;5.886;2022-12-01T09:39:58;101.47;;;43.80;;
36799;SDS011;22752;51.960;5.886;2022-12-01T09:42:23;81.20;;;40.80;;
36799;SDS011;22752;51.960;5.886;2022-12-01T09:44:54;86.83;;;41.47;;
36799;SDS011;22752;51.960;5.886;2022-12-01T09:47:25;89.13;;;42.33;;
36799;SDS011;22752;51.960;5.886;2022-12-01T09:49:56;79.80;;;39.63;;
36799;SDS011;22752;51.960;5.886;2022-12-01T09:52:39;90.93;;;42.47;;
36799;SDS011;22752;51.960;5.886;2022-12-01T09:55:11;88.30;;;42.03;;
36799;SDS011;22752;51.960;5.886;2022-12-01T09:57:39;90.67;;;44.23;;
36799;SDS011;22752;51.960;5.886;2022-12-01T10:00:10;96.10;;;43.10;;
36799;SDS011;22752;51.960;5.886;2022-12-01T10:08:14;86.80;;;42.83;;
36799;SDS011;22752;51.960;5.886;2022-12-01T10:10:46;84.70;;;41.03;;
36799;SDS011;22752;51.960;5.886;2022-12-01T10:13:18;84.90;;;40.77;;
36799;SDS011;22752;51.960;5.886;2022-12-01T10:15:49;81.27;;;41.73;;
36799;SDS011;22752;51.960;5.886;2022-12-01T10:27:09;74.53;;;38.23;;
36799;SDS011;22752;51.960;5.886;2022-12-01T10:32:18;73.00;;;39.22;;
36799;SDS011;22752;51.960;5.886;2022-12-01T10:34:50;75.50;;;38.07;;
36799;SDS011;22752;51.960;5.886;2022-12-01T10:37:17;73.97;;;39.53;;
36799;SDS011;22752;51.960;5.886;2022-12-01T10:39:47;68.83;;;36.03;;
36799;SDS011;22752;51.960;5.886;2022-12-01T10:45:21;73.33;;;38.30;;
36799;SDS011;22752;51.960;5.886;2022-12-01T10:48:08;79.17;;;40.83;;
36799;SDS011;22752;51.960;5.886;2022-12-01T10:50:50;69.63;;;37.90;;
36799;SDS011;22752;51.960;5.886;2022-12-01T10:56:01;69.77;;;36.40;;
36799;SDS011;22752;51.960;5.886;2022-12-01T10:58:57;66.07;;;37.07;;
36799;SDS011;22752;51.960;5.886;2022-12-01T11:01:30;76.33;;;39.23;;
36799;SDS011;22752;51.960;5.886;2022-12-01T11:04:03;69.50;;;39.70;;
36799;SDS011;22752;51.960;5.886;2022-12-01T11:06:32;74.95;;;40.80;;
36799;SDS011;22752;51.960;5.886;2022-12-01T11:09:03;74.83;;;39.57;;
36799;SDS011;22752;51.960;5.886;2022-12-01T11:11:40;68.00;;;38.27;;
36799;SDS011;22752;51.960;5.886;2022-12-01T11:14:16;66.97;;;39.27;;
36799;SDS011;22752;51.960;5.886;2022-12-01T11:16:45;69.60;;;36.97;;
36799;SDS011;22752;51.960;5.886;2022-12-01T11:22:17;70.20;;;38.23;;
36799;SDS011;22752;51.960;5.886;2022-12-01T11:25:03;67.00;;;38.77;;
36799;SDS011;22752;51.960;5.886;2022-12-01T11:27:31;67.77;;;35.80;;
36799;SDS011;22752;51.960;5.886;2022-12-01T11:30:21;59.43;;;34.40;;
36799;SDS011;22752;51.960;5.886;2022-12-01T11:32:50;60.10;;;33.17;;
36799;SDS011;22752;51.960;5.886;2022-12-01T11:35:20;58.73;;;33.30;;
36799;SDS011;22752;51.960;5.886;2022-12-01T11:37:49;59.10;;;34.67;;
36799;SDS011;22752;51.960;5.886;2022-12-01T11:40:19;58.70;;;33.70;;
36799;SDS011;22752;51.960;5.886;2022-12-01T11:42:50;53.70;;;31.30;;
36799;SDS011;22752;51.960;5.886;2022-12-01T11:48:03;63.60;;;33.93;;
36799;SDS011;22752;51.960;5.886;2022-12-01T11:50:41;52.90;;;31.27;;
36799;SDS011;22752;51.960;5.886;2022-12-01T11:56:21;52.13;;;29.97;;
36799;SDS011;22752;51.960;5.886;2022-12-01T11:58:50;50.37;;;29.70;;
36799;SDS011;22752;51.960;5.886;2022-12-01T12:01:26;50.40;;;29.77;;
36799;SDS011;22752;51.960;5.886;2022-12-01T12:07:24;48.77;;;27.87;;
36799;SDS011;22752;51.960;5.886;2022-12-01T12:10:16;49.60;;;29.37;;
36799;SDS011;22752;51.960;5.886;2022-12-01T12:25:57;46.57;;;26.53;;
36799;SDS011;22752;51.960;5.886;2022-12-01T12:31:05;43.17;;;25.57;;
36799;SDS011;22752;51.960;5.886;2022-12-01T12:33:58;42.73;;;26.00;;
36799;SDS011;22752;51.960;5.886;2022-12-01T12:39:23;41.90;;;24.47;;
36799;SDS011;22752;51.960;5.886;2022-12-01T12:41:53;41.07;;;23.23;;
36799;SDS011;22752;51.960;5.886;2022-12-01T12:49:43;42.13;;;24.80;;
36799;SDS011;22752;51.960;5.886;2022-12-01T12:52:17;42.97;;;25.42;;
36799;SDS011;22752;51.960;5.886;2022-12-01T12:54:51;41.17;;;24.77;;
36799;SDS011;22752;51.960;5.886;2022-12-01T12:57:20;43.38;;;23.88;;
36799;SDS011;22752;51.960;5.886;2022-12-01T12:59:52;44.97;;;24.63;;
36799;SDS011;22752;51.960;5.886;2022-12-01T13:02:33;40.73;;;24.20;;
36799;SDS011;22752;51.960;5.886;2022-12-01T13:05:28;40.27;;;23.07;;
36799;SDS011;22752;51.960;5.886;2022-12-01T13:08:03;37.90;;;22.50;;
36799;SDS011;22752;51.960;5.886;2022-12-01T13:10:41;39.80;;;24.03;;
36799;SDS011;22752;51.960;5.886;2022-12-01T13:15:45;45.03;;;25.97;;
36799;SDS011;22752;51.960;5.886;2022-12-01T13:18:32;44.40;;;24.83;;
36799;SDS011;22752;51.960;5.886;2022-12-01T13:21:03;48.33;;;26.20;;
36799;SDS011;22752;51.960;5.886;2022-12-01T13:23:29;46.33;;;27.37;;
36799;SDS011;22752;51.960;5.886;2022-12-01T13:25:57;49.77;;;27.63;;
36799;SDS011;22752;51.960;5.886;2022-12-01T13:28:29;46.87;;;28.10;;
36799;SDS011;22752;51.960;5.886;2022-12-01T13:33:30;49.77;;;29.70;;
36799;SDS011;22752;51.960;5.886;2022-12-01T13:35:57;51.43;;;27.87;;
36799;SDS011;22752;51.960;5.886;2022-12-01T13:38:30;51.43;;;29.57;;
36799;SDS011;22752;51.960;5.886;2022-12-01T13:41:32;45.73;;;28.00;;
36799;SDS011;22752;51.960;5.886;2022-12-01T13:46:27;48.57;;;28.70;;
36799;SDS011;22752;51.960;5.886;2022-12-01T13:55:01;53.13;;;31.30;;
36799;SDS011;22752;51.960;5.886;2022-12-01T14:08:22;51.43;;;31.37;;
36799;SDS011;22752;51.960;5.886;2022-12-01T14:13:50;50.90;;;29.70;;
36799;SDS011;22752;51.960;5.886;2022-12-01T14:16:21;54.97;;;30.27;;
36799;SDS011;22752;51.960;5.886;2022-12-01T14:21:38;53.27;;;30.70;;
36799;SDS011;22752;51.960;5.886;2022-12-01T14:24:14;51.60;;;29.90;;
36799;SDS011;22752;51.960;5.886;2022-12-01T14:26:47;54.97;;;32.03;;
36799;SDS011;22752;51.960;5.886;2022-12-01T14:29:22;58.00;;;33.53;;
36799;SDS011;22752;51.960;5.886;2022-12-01T14:34:16;55.23;;;32.07;;
36799;SDS011;22752;51.960;5.886;2022-12-01T14:36:52;53.85;;;32.40;;
36799;SDS011;22752;51.960;5.886;2022-12-01T14:39:36;56.83;;;32.23;;
36799;SDS011;22752;51.960;5.886;2022-12-01T14:42:11;59.27;;;33.90;;
36799;SDS011;22752;51.960;5.886;2022-12-01T14:45:01;61.63;;;33.37;;
36799;SDS011;22752;51.960;5.886;2022-12-01T14:47:28;57.63;;;33.70;;
36799;SDS011;22752;51.960;5.886;2022-12-01T14:50:21;64.33;;;36.70;;
36799;SDS011;22752;51.960;5.886;2022-12-01T14:52:54;62.23;;;35.10;;
36799;SDS011;22752;51.960;5.886;2022-12-01T14:55:41;61.20;;;35.13;;
36799;SDS011;22752;51.960;5.886;2022-12-01T14:58:14;60.80;;;35.43;;
36799;SDS011;22752;51.960;5.886;2022-12-01T15:00:53;70.30;;;37.10;;
36799;SDS011;22752;51.960;5.886;2022-12-01T15:03:48;61.57;;;34.57;;
36799;SDS011;22752;51.960;5.886;2022-12-01T15:06:19;64.23;;;35.90;;
36799;SDS011;22752;51.960;5.886;2022-12-01T15:11:32;63.20;;;36.53;;
36799;SDS011;22752;51.960;5.886;2022-12-01T15:13:59;60.27;;;34.53;;
36799;SDS011;22752;51.960;5.886;2022-12-01T15:16:27;66.77;;;38.43;;
36799;SDS011;22752;51.960;5.886;2022-12-01T15:18:55;80.17;;;40.83;;
36799;SDS011;22752;51.960;5.886;2022-12-01T15:21:24;71.30;;;40.00;;
36799;SDS011;22752;51.960;5.886;2022-12-01T15:26:28;73.30;;;38.67;;
36799;SDS011;22752;51.960;5.886;2022-12-01T15:29:03;74.73;;;40.37;;
36799;SDS011;22752;51.960;5.886;2022-12-01T15:31:35;70.80;;;39.87;;
36799;SDS011;22752;51.960;5.886;2022-12-01T15:34:00;68.97;;;38.43;;
36799;SDS011;22752;51.960;5.886;2022-12-01T15:36:26;71.10;;;39.63;;
36799;SDS011;22752;51.960;5.886;2022-12-01T15:38:52;72.80;;;40.53;;
36799;SDS011;22752;51.960;5.886;2022-12-01T15:41:19;72.27;;;40.10;;
36799;SDS011;22752;51.960;5.886;2022-12-01T15:43:53;75.97;;;41.77;;
36799;SDS011;22752;51.960;5.886;2022-12-01T15:46:26;69.67;;;38.57;;
36799;SDS011;22752;51.960;5.886;2022-12-01T15:49:06;70.95;;;38.33;;
36799;SDS011;22752;51.960;5.886;2022-12-01T15:52:08;76.10;;;40.83;;
36799;SDS011;22752;51.960;5.886;2022-12-01T15:54:36;78.63;;;42.13;;
36799;SDS011;22752;51.960;5.886;2022-12-01T15:57:02;80.00;;;43.10;;
36799;SDS011;22752;51.960;5.886;2022-12-01T15:59:34;77.33;;;41.90;;
36799;SDS011;22752;51.960;5.886;2022-12-01T16:07:37;78.27;;;41.37;;
36799;SDS011;22752;51.960;5.886;2022-12-01T16:10:03;82.73;;;45.10;;
36799;SDS011;22752;51.960;5.886;2022-12-01T16:12:30;73.87;;;40.87;;
36799;SDS011;22752;51.960;5.886;2022-12-01T16:17:41;81.40;;;43.07;;
36799;SDS011;22752;51.960;5.886;2022-12-01T16:20:30;76.60;;;42.20;;
36799;SDS011;22752;51.960;5.886;2022-12-01T16:23:01;81.20;;;42.70;;
36799;SDS011;22752;51.960;5.886;2022-12-01T16:27:59;75.20;;;41.47;;
36799;SDS011;22752;51.960;5.886;2022-12-01T16:30:26;77.07;;;41.83;;
36799;SDS011;22752;51.960;5.886;2022-12-01T16:33:05;75.23;;;41.67;;
36799;SDS011;22752;51.960;5.886;2022-12-01T16:35:39;73.83;;;41.07;;
36799;SDS011;22752;51.960;5.886;2022-12-01T16:38:18;75.07;;;40.90;;
36799;SDS011;22752;51.960;5.886;2022-12-01T16:40:47;73.47;;;40.47;;
36799;SDS011;22752;51.960;5.886;2022-12-01T16:43:18;75.30;;;41.43;;
36799;SDS011;22752;51.960;5.886;2022-12-01T16:45:45;82.40;;;43.73;;
36799;SDS011;22752;51.960;5.886;2022-12-01T16:48:19;76.00;;;42.43;;
36799;SDS011;22752;51.960;5.886;2022-12-01T16:50:46;81.47;;;43.20;;
36799;SDS011;22752;51.960;5.886;2022-12-01T16:53:12;81.47;;;43.17;;
36799;SDS011;22752;51.960;5.886;2022-12-01T16:58:07;78.93;;;43.77;;
36799;SDS011;22752;51.960;5.886;2022-12-01T17:00:33;77.90;;;40.13;;
36799;SDS011;22752;51.960;5.886;2022-12-01T17:02:59;80.67;;;42.87;;
36799;SDS011;22752;51.960;5.886;2022-12-01T17:05:25;75.33;;;40.77;;
36799;SDS011;22752;51.960;5.886;2022-12-01T17:07:51;78.00;;;41.33;;
36799;SDS011;22752;51.960;5.886;2022-12-01T17:10:17;78.37;;;41.67;;
36799;SDS011;22752;51.960;5.886;2022-12-01T17:12:43;75.00;;;41.03;;
36799;SDS011;22752;51.960;5.886;2022-12-01T17:15:09;74.83;;;41.23;;
36799;SDS011;22752;51.960;5.886;2022-12-01T17:17:35;80.07;;;43.43;;